createdAt,value
2022-12-04T00:01:51.456Z,174.90
2022-12-04T00:04:28.346Z,165.00
2022-12-04T00:07:04.369Z,161.70
2022-12-04T00:09:39.045Z,166.00
2022-12-04T00:12:15.736Z,127.50
2022-12-04T00:15:23.929Z,174.80
2022-12-04T00:17:50.830Z,109.00
2022-12-04T00:20:25.342Z,130.90
2022-12-04T00:23:01.968Z,173.70
2022-12-04T00:25:41.382Z,169.40
2022-12-04T00:28:15.952Z,115.50
2022-12-04T00:30:50.839Z,145.20
2022-12-04T00:33:24.801Z,110.00
2022-12-04T00:36:09.161Z,178.30
2022-12-04T00:38:43.405Z,114.60
2022-12-04T00:41:20.426Z,151.70
2022-12-04T00:43:54.851Z,145.20
2022-12-04T00:46:29.083Z,179.30
2022-12-04T00:49:03.514Z,169.00
2022-12-04T00:51:37.994Z,153.00
2022-12-04T00:54:12.190Z,89.30
2022-12-04T00:56:46.225Z,136.90
2022-12-04T00:59:22.617Z,107.00
2022-12-04T01:01:56.885Z,138.30
2022-12-04T01:04:30.983Z,112.90
2022-12-04T01:07:05.523Z,138.60
2022-12-04T01:09:40.036Z,122.00
2022-12-04T01:14:52.061Z,100.70
2022-12-04T01:17:26.282Z,87.30
2022-12-04T01:20:01.677Z,135.10
2022-12-04T01:22:37.330Z,92.80
2022-12-04T01:25:21.448Z,140.50
2022-12-04T01:27:57.594Z,117.40
2022-12-04T01:30:33.448Z,75.80
2022-12-04T01:33:09.974Z,100.30
2022-12-04T01:35:54.079Z,124.70
2022-12-04T01:41:01.491Z,110.90
2022-12-04T01:43:38.088Z,133.40
2022-12-04T01:46:13.219Z,123.50
2022-12-04T01:48:52.987Z,72.10
2022-12-04T01:51:32.221Z,110.00
2022-12-04T01:54:11.071Z,118.70
2022-12-04T01:56:49.102Z,136.90
2022-12-04T01:59:28.901Z,173.10
2022-12-04T02:02:09.739Z,131.60
2022-12-04T02:04:45.125Z,150.50
2022-12-04T02:07:19.010Z,117.30
2022-12-04T02:12:35.815Z,109.20
2022-12-04T02:15:18.508Z,109.50
2022-12-04T02:18:11.925Z,115.90
2022-12-04T02:20:55.401Z,107.00
2022-12-04T02:23:47.643Z,138.30
2022-12-04T02:26:44.321Z,92.40
2022-12-04T02:29:26.563Z,139.10
2022-12-04T02:32:08.308Z,111.70
2022-12-04T02:34:47.814Z,57.50
2022-12-04T02:37:26.353Z,76.70
2022-12-04T02:40:04.780Z,120.70
2022-12-04T02:42:44.698Z,146.20
2022-12-04T02:45:22.568Z,142.00
2022-12-04T02:47:57.626Z,151.90
2022-12-04T02:50:33.129Z,112.00
2022-12-04T02:53:11.422Z,129.90
2022-12-04T02:55:49.450Z,121.10
2022-12-04T02:58:28.182Z,196.40
2022-12-04T03:01:05.598Z,186.10
2022-12-04T03:03:40.748Z,226.20
2022-12-04T03:06:17.993Z,281.90
2022-12-04T03:08:56.422Z,207.10
2022-12-04T03:11:33.760Z,213.90
2022-12-04T03:14:14.754Z,231.30
2022-12-04T03:16:50.758Z,182.80
2022-12-04T03:19:30.667Z,229.60
2022-12-04T03:22:07.556Z,175.20
2022-12-04T03:24:45.632Z,199.00
2022-12-04T03:27:26.337Z,115.10
2022-12-04T03:30:06.023Z,161.10
2022-12-04T03:32:46.707Z,180.80
2022-12-04T03:35:25.403Z,226.80
2022-12-04T03:38:05.477Z,167.80
2022-12-04T03:40:45.184Z,140.90
2022-12-04T03:43:25.617Z,153.30
2022-12-04T03:46:06.192Z,215.30
2022-12-04T03:48:50.164Z,171.10
2022-12-04T03:54:04.547Z,239.70
2022-12-04T03:56:42.061Z,98.80
2022-12-04T03:59:21.484Z,211.10
2022-12-04T04:01:58.490Z,229.40
2022-12-04T04:04:37.822Z,130.90
2022-12-04T04:07:16.371Z,134.00
2022-12-04T04:09:53.943Z,120.10
2022-12-04T04:12:34.064Z,179.10
2022-12-04T04:15:29.531Z,146.10
2022-12-04T04:18:23.242Z,137.60
2022-12-04T04:21:19.320Z,130.70
2022-12-04T04:24:12.181Z,139.40
2022-12-04T04:26:49.237Z,163.10
2022-12-04T04:29:23.543Z,93.90
2022-12-04T04:32:02.125Z,102.90
2022-12-04T04:34:44.445Z,142.10
2022-12-04T04:37:27.292Z,124.40
2022-12-04T04:40:09.253Z,119.90
2022-12-04T04:42:51.887Z,73.00
2022-12-04T04:46:04.574Z,109.60
2022-12-04T04:49:08.206Z,103.30
2022-12-04T04:52:09.454Z,135.40
2022-12-04T04:54:49.599Z,123.20
2022-12-04T04:57:33.251Z,119.60
2022-12-04T05:00:11.409Z,109.00
2022-12-04T05:02:49.465Z,130.50
2022-12-04T05:05:23.865Z,97.80
2022-12-04T05:07:58.378Z,177.60
2022-12-04T05:10:31.975Z,132.30
2022-12-04T05:13:05.996Z,115.40
2022-12-04T05:15:40.279Z,119.40
2022-12-04T05:18:15.138Z,128.30
2022-12-04T05:20:49.009Z,81.70
2022-12-04T05:23:23.074Z,192.40
2022-12-04T05:26:03.933Z,156.10
2022-12-04T05:28:37.805Z,159.40
2022-12-04T05:31:12.057Z,131.60
2022-12-04T05:33:45.920Z,118.30
2022-12-04T05:36:21.465Z,97.80
2022-12-04T05:38:55.717Z,147.00
2022-12-04T05:41:30.621Z,127.10
2022-12-04T05:44:04.704Z,138.10
2022-12-04T05:46:38.269Z,62.60
2022-12-04T05:49:12.120Z,119.60
2022-12-04T05:51:46.129Z,124.10
2022-12-04T05:54:20.446Z,146.90
2022-12-04T05:56:54.008Z,154.40
2022-12-04T05:59:28.402Z,165.20
2022-12-04T06:02:02.556Z,96.10
2022-12-04T06:04:36.640Z,129.00
2022-12-04T06:07:11.492Z,172.50
2022-12-04T06:09:45.714Z,86.40
2022-12-04T06:12:19.755Z,100.10
2022-12-04T06:14:53.746Z,159.00
2022-12-04T06:17:28.086Z,112.30
2022-12-04T06:20:05.229Z,135.40
2022-12-04T06:22:42.100Z,131.10
2022-12-04T06:25:16.767Z,103.80
2022-12-04T06:27:51.981Z,91.90
2022-12-04T06:30:25.940Z,121.40
2022-12-04T06:33:00.074Z,166.20
2022-12-04T06:35:34.426Z,143.30
2022-12-04T06:38:08.745Z,74.00
2022-12-04T06:40:45.699Z,100.30
2022-12-04T06:43:20.712Z,148.70
2022-12-04T06:46:05.467Z,113.20
2022-12-04T06:48:39.352Z,129.50
2022-12-04T06:51:16.181Z,169.90
2022-12-04T06:53:50.637Z,111.30
2022-12-04T06:56:25.557Z,84.90
2022-12-04T06:59:01.876Z,119.20
2022-12-04T07:01:37.272Z,96.20
2022-12-04T07:04:11.792Z,145.10
2022-12-04T07:06:46.076Z,89.40
2022-12-04T07:09:20.447Z,78.50
2022-12-04T07:11:55.696Z,108.70
2022-12-04T07:14:29.456Z,70.40
2022-12-04T07:17:03.947Z,119.20
2022-12-04T07:19:39.012Z,100.30
2022-12-04T07:22:12.944Z,66.70
2022-12-04T07:24:52.893Z,78.80
2022-12-04T07:27:27.121Z,36.30
2022-12-04T07:30:01.121Z,46.90
2022-12-04T07:32:35.225Z,157.30
2022-12-04T07:35:11.213Z,138.60
2022-12-04T07:37:45.960Z,113.10
2022-12-04T07:40:20.212Z,87.20
2022-12-04T07:42:57.149Z,65.50
2022-12-04T07:45:31.177Z,67.70
2022-12-04T07:48:05.087Z,109.90
2022-12-04T07:53:10.890Z,109.50
2022-12-04T07:55:45.121Z,72.50
2022-12-04T07:58:19.352Z,158.00
2022-12-04T08:00:53.219Z,130.00
2022-12-04T08:03:27.522Z,106.20
2022-12-04T08:06:04.250Z,65.50
2022-12-04T08:08:39.298Z,89.80
2022-12-04T08:11:14.950Z,85.00
2022-12-04T08:13:49.250Z,158.50
2022-12-04T08:16:23.788Z,110.20
2022-12-04T08:18:58.921Z,94.60
2022-12-04T08:21:35.335Z,56.50
2022-12-04T08:24:11.822Z,76.20
2022-12-04T08:26:47.032Z,142.90
2022-12-04T08:29:21.473Z,88.90
2022-12-04T08:31:55.378Z,95.80
2022-12-04T08:34:29.706Z,104.70
2022-12-04T08:37:04.117Z,142.20
2022-12-04T08:39:38.675Z,113.00
2022-12-04T08:42:12.711Z,105.80
2022-12-04T08:44:47.423Z,94.90
2022-12-04T08:47:24.840Z,54.80
2022-12-04T08:49:59.500Z,97.90
2022-12-04T08:52:33.625Z,82.50
2022-12-04T08:55:08.682Z,150.50
2022-12-04T08:57:42.198Z,106.90
2022-12-04T09:02:55.029Z,97.20
2022-12-04T09:05:29.405Z,74.70
2022-12-04T09:08:04.103Z,74.00
2022-12-04T09:10:40.954Z,66.20
2022-12-04T09:13:19.135Z,104.30
2022-12-04T09:15:59.565Z,85.70
2022-12-04T09:18:36.868Z,39.90
2022-12-04T09:21:21.244Z,116.70
2022-12-04T09:23:57.851Z,114.60
2022-12-04T09:26:36.560Z,97.30
2022-12-04T09:29:13.232Z,67.30
2022-12-04T09:31:48.078Z,67.70
2022-12-04T09:34:22.516Z,64.10
2022-12-04T09:36:59.625Z,104.70
2022-12-04T09:39:34.371Z,70.30
2022-12-04T09:42:32.101Z,60.90
2022-12-04T09:45:16.787Z,87.70
2022-12-04T09:47:56.663Z,94.90
2022-12-04T09:50:38.111Z,62.60
2022-12-04T09:53:18.615Z,62.90
2022-12-04T09:56:01.709Z,58.20
2022-12-04T09:58:43.789Z,51.40
2022-12-04T10:01:26.391Z,83.10
2022-12-04T10:04:05.972Z,68.70
2022-12-04T10:06:50.229Z,53.50
2022-12-04T10:09:30.047Z,55.20
2022-12-04T10:12:11.522Z,56.10
2022-12-04T10:15:11.626Z,54.80
2022-12-04T10:18:06.108Z,39.40
2022-12-04T10:20:54.250Z,42.60
2022-12-04T10:23:38.454Z,45.00
2022-12-04T10:26:18.160Z,41.50
2022-12-04T10:28:56.812Z,46.40
2022-12-04T10:31:31.871Z,57.30
2022-12-04T10:34:11.050Z,39.60
2022-12-04T10:36:48.156Z,46.10
2022-12-04T10:39:28.969Z,39.70
2022-12-04T10:42:08.760Z,44.90
2022-12-04T10:44:48.453Z,35.70
2022-12-04T10:47:24.711Z,34.60
2022-12-04T10:50:06.837Z,51.70
2022-12-04T10:52:40.936Z,43.00
2022-12-04T10:55:15.872Z,36.20
2022-12-04T10:57:51.180Z,38.10
2022-12-04T11:00:34.336Z,39.10
2022-12-04T11:03:24.353Z,34.60
2022-12-04T11:06:02.500Z,40.00
2022-12-04T11:08:41.291Z,38.80
2022-12-04T11:11:17.011Z,35.80
2022-12-04T11:13:51.695Z,40.30
2022-12-04T11:16:40.163Z,37.30
2022-12-04T11:19:29.117Z,43.60
2022-12-04T11:22:06.735Z,37.60
2022-12-04T11:24:43.467Z,41.00
2022-12-04T11:27:26.418Z,39.00
2022-12-04T11:30:03.422Z,42.20
2022-12-04T11:32:38.317Z,48.30
2022-12-04T11:35:23.572Z,45.90
2022-12-04T11:38:00.526Z,45.20
2022-12-04T11:40:35.018Z,44.10
2022-12-04T11:43:15.351Z,40.90
2022-12-04T11:46:00.456Z,45.90
2022-12-04T11:48:44.551Z,38.80
2022-12-04T11:51:32.742Z,42.70
2022-12-04T11:54:15.257Z,44.70
2022-12-04T11:56:57.548Z,45.50
2022-12-04T11:59:58.437Z,46.60
2022-12-04T12:02:48.924Z,195.50
2022-12-04T12:05:45.229Z,150.90
2022-12-04T12:08:32.860Z,251.20
2022-12-04T12:11:24.166Z,137.30
2022-12-04T12:14:09.241Z,96.00
2022-12-04T12:16:58.552Z,104.80
2022-12-04T12:19:55.643Z,83.80
2022-12-04T12:22:44.093Z,47.50
2022-12-04T12:25:24.596Z,47.00
2022-12-04T12:28:21.083Z,44.10
2022-12-04T12:31:11.547Z,42.70
2022-12-04T12:33:54.150Z,49.90
2022-12-04T12:36:38.755Z,58.20
2022-12-04T12:39:24.038Z,57.30
2022-12-04T12:42:04.294Z,65.50
2022-12-04T12:44:55.482Z,50.30
2022-12-04T12:47:39.864Z,40.60
2022-12-04T12:50:24.181Z,44.90
2022-12-04T12:53:00.778Z,41.00
2022-12-04T12:55:38.756Z,44.70
2022-12-04T12:58:26.521Z,44.00
2022-12-04T13:01:08.986Z,44.80
2022-12-04T13:03:52.966Z,38.30
2022-12-04T13:09:08.998Z,39.50
2022-12-04T13:11:44.257Z,42.30
2022-12-04T13:14:18.946Z,44.90
2022-12-04T13:16:58.264Z,54.70
2022-12-04T13:19:36.040Z,46.50
2022-12-04T13:22:21.176Z,46.90
2022-12-04T13:25:29.012Z,49.00
2022-12-04T13:28:18.324Z,42.80
2022-12-04T13:31:03.055Z,36.00
2022-12-04T13:34:15.832Z,39.60
2022-12-04T13:37:25.772Z,35.80
2022-12-04T13:40:37.992Z,32.60
2022-12-04T13:43:37.486Z,33.70
2022-12-04T13:46:36.663Z,33.00
2022-12-04T13:49:30.627Z,36.70
2022-12-04T13:52:06.266Z,34.00
2022-12-04T13:54:40.979Z,43.70
2022-12-04T13:57:26.027Z,45.70
2022-12-04T14:00:26.708Z,42.00
2022-12-04T14:03:02.986Z,30.70
2022-12-04T14:05:45.261Z,29.20
2022-12-04T14:08:33.002Z,32.50
2022-12-04T14:11:11.322Z,34.30
2022-12-04T14:13:51.737Z,44.20
2022-12-04T14:16:33.631Z,40.00
2022-12-04T14:19:30.856Z,39.90
2022-12-04T14:22:05.756Z,42.20
2022-12-04T14:24:41.816Z,37.00
2022-12-04T14:27:37.120Z,39.90
2022-12-04T14:30:23.279Z,36.60
2022-12-04T14:33:08.150Z,37.90
2022-12-04T14:35:51.126Z,38.10
2022-12-04T14:38:26.250Z,35.70
2022-12-04T14:41:02.500Z,36.10
2022-12-04T14:43:41.194Z,33.20
2022-12-04T14:46:26.636Z,35.70
2022-12-04T14:49:11.268Z,35.60
2022-12-04T14:51:52.158Z,35.90
2022-12-04T14:54:34.836Z,37.70
2022-12-04T14:57:26.361Z,36.50
2022-12-04T15:00:02.569Z,39.80
2022-12-04T15:02:42.120Z,35.90
2022-12-04T15:05:22.594Z,36.70
2022-12-04T15:07:59.679Z,37.90
2022-12-04T15:10:55.360Z,36.40
2022-12-04T15:13:35.758Z,37.70
2022-12-04T15:16:22.896Z,38.90
2022-12-04T15:19:02.288Z,39.90
2022-12-04T15:21:43.022Z,40.50
2022-12-04T15:24:25.139Z,38.30
2022-12-04T15:27:00.181Z,41.40
2022-12-04T15:29:48.781Z,42.00
2022-12-04T15:32:33.090Z,41.00
2022-12-04T15:35:15.144Z,36.20
2022-12-04T15:37:51.167Z,41.60
2022-12-04T15:40:29.707Z,43.00
2022-12-04T15:43:28.602Z,45.20
2022-12-04T15:46:14.628Z,44.00
2022-12-04T15:48:49.183Z,41.60
2022-12-04T15:51:25.306Z,38.80
2022-12-04T15:53:59.490Z,38.70
2022-12-04T15:56:35.051Z,42.80
2022-12-04T15:59:09.023Z,38.60
2022-12-04T16:01:45.054Z,42.30
2022-12-04T16:04:27.263Z,39.50
2022-12-04T16:07:01.879Z,39.30
2022-12-04T16:09:37.789Z,43.70
2022-12-04T16:12:22.534Z,42.00
2022-12-04T16:14:58.907Z,43.40
2022-12-04T16:17:37.178Z,45.70
2022-12-04T16:20:13.533Z,37.60
2022-12-04T16:22:47.546Z,45.70
2022-12-04T16:25:24.638Z,50.90
2022-12-04T16:27:59.104Z,49.90
2022-12-04T16:30:38.375Z,47.50
2022-12-04T16:33:15.199Z,45.00
2022-12-04T16:35:52.152Z,52.50
2022-12-04T16:38:27.525Z,49.00
2022-12-04T16:41:02.060Z,58.70
2022-12-04T16:43:36.123Z,52.50
2022-12-04T16:46:14.735Z,54.80
2022-12-04T16:48:49.904Z,46.40
2022-12-04T16:51:25.345Z,61.60
2022-12-04T16:54:00.340Z,53.00
2022-12-04T16:56:34.897Z,65.80
2022-12-04T16:59:11.933Z,61.50
2022-12-04T17:01:51.066Z,88.70
2022-12-04T17:04:24.832Z,64.10
2022-12-04T17:06:59.701Z,118.90
2022-12-04T17:09:33.429Z,79.30
2022-12-04T17:12:07.953Z,103.60
2022-12-04T17:14:42.936Z,64.00
2022-12-04T17:17:23.032Z,86.10
2022-12-04T17:20:10.881Z,72.40
2022-12-04T17:23:21.834Z,84.10
2022-12-04T17:26:11.691Z,37.80
2022-12-04T17:28:50.049Z,56.00
2022-12-04T17:31:34.060Z,68.20
2022-12-04T17:34:12.765Z,86.90
2022-12-04T17:36:47.089Z,76.50
2022-12-04T17:39:21.242Z,59.70
2022-12-04T17:41:56.538Z,105.50
2022-12-04T17:44:30.823Z,67.70
2022-12-04T17:47:05.068Z,90.70
2022-12-04T17:49:39.276Z,94.10
2022-12-04T17:52:15.627Z,51.80
2022-12-04T17:54:52.002Z,58.80
2022-12-04T17:57:27.428Z,105.10
2022-12-04T18:00:08.588Z,68.30
2022-12-04T18:03:16.996Z,40.90
2022-12-04T18:05:55.112Z,65.20
2022-12-04T18:08:32.225Z,84.20
2022-12-04T18:11:08.577Z,36.50
2022-12-04T18:13:42.617Z,53.40
2022-12-04T18:16:17.383Z,102.40
2022-12-04T18:18:51.784Z,111.80
2022-12-04T18:21:26.399Z,186.20
2022-12-04T18:24:03.400Z,140.80
2022-12-04T18:26:40.940Z,138.40
2022-12-04T18:29:18.321Z,100.80
2022-12-04T18:31:53.131Z,87.60
2022-12-04T18:34:27.577Z,81.40
2022-12-04T18:37:04.758Z,133.80
2022-12-04T18:39:40.160Z,78.40
2022-12-04T18:42:18.052Z,102.20
2022-12-04T18:44:52.829Z,97.10
2022-12-04T18:47:27.610Z,128.40
2022-12-04T18:50:02.063Z,75.50
2022-12-04T18:52:39.336Z,109.10
2022-12-04T18:55:13.998Z,49.60
2022-12-04T18:57:48.457Z,145.10
2022-12-04T19:00:26.725Z,118.00
2022-12-04T19:03:06.217Z,153.00
2022-12-04T19:05:53.168Z,173.70
2022-12-04T19:08:38.681Z,87.90
2022-12-04T19:11:41.624Z,117.70
2022-12-04T19:14:32.790Z,174.00
2022-12-04T19:17:12.907Z,137.70
2022-12-04T19:19:58.454Z,96.70
2022-12-04T19:22:39.631Z,117.80
2022-12-04T19:25:22.384Z,132.40
2022-12-04T19:28:05.759Z,132.70
2022-12-04T19:30:47.943Z,98.80
2022-12-04T19:33:26.166Z,142.90
2022-12-04T19:36:07.030Z,158.60
2022-12-04T19:38:41.845Z,85.10
2022-12-04T19:41:18.992Z,181.70
2022-12-04T19:43:57.635Z,120.80
2022-12-04T19:46:34.373Z,116.30
2022-12-04T19:49:09.561Z,64.10
2022-12-04T19:51:45.078Z,137.30
2022-12-04T19:54:23.227Z,104.40
2022-12-04T19:57:00.315Z,213.40
2022-12-04T19:59:37.710Z,124.80
2022-12-04T20:02:14.384Z,132.10
2022-12-04T20:04:49.471Z,139.60
2022-12-04T20:07:29.872Z,167.70
2022-12-04T20:10:04.497Z,113.10
2022-12-04T20:12:38.756Z,155.90
2022-12-04T20:15:14.088Z,174.10
2022-12-04T20:17:48.843Z,116.80
2022-12-04T20:20:24.099Z,186.90
2022-12-04T20:22:58.715Z,122.10
2022-12-04T20:25:32.653Z,144.60
2022-12-04T20:28:11.511Z,222.30
2022-12-04T20:30:50.661Z,147.10
2022-12-04T20:33:24.600Z,155.40
2022-12-04T20:38:30.927Z,113.10
2022-12-04T20:41:10.835Z,158.10
2022-12-04T20:43:49.437Z,120.40
2022-12-04T20:46:27.113Z,229.00
2022-12-04T20:49:02.980Z,175.30
2022-12-04T20:51:39.203Z,163.50
2022-12-04T20:54:21.282Z,150.60
2022-12-04T20:56:57.743Z,153.60
2022-12-04T20:59:34.187Z,172.40
2022-12-04T21:02:09.785Z,110.90
2022-12-04T21:04:45.241Z,182.30
2022-12-04T21:07:21.654Z,158.00
2022-12-04T21:09:55.939Z,178.50
2022-12-04T21:12:46.851Z,103.70
2022-12-04T21:15:38.153Z,240.40
2022-12-04T21:18:12.378Z,147.60
2022-12-04T21:20:46.996Z,94.60
2022-12-04T21:23:21.356Z,131.60
2022-12-04T21:25:56.847Z,192.00
2022-12-04T21:28:31.943Z,140.20
2022-12-04T21:31:07.555Z,154.20
2022-12-04T21:33:41.162Z,121.50
2022-12-04T21:38:53.503Z,101.90
2022-12-04T21:41:44.362Z,70.20
2022-12-04T21:44:26.744Z,74.00
2022-12-04T21:47:05.801Z,131.90
2022-12-04T21:49:42.210Z,121.70
2022-12-04T21:52:16.377Z,69.00
2022-12-04T21:54:53.629Z,65.20
2022-12-04T21:57:29.586Z,116.10
2022-12-04T22:00:04.877Z,108.80
2022-12-04T22:02:40.576Z,170.50
2022-12-04T22:05:14.511Z,167.30
2022-12-04T22:07:48.492Z,169.00
2022-12-04T22:10:24.875Z,70.00
2022-12-04T22:12:59.529Z,103.90
2022-12-04T22:15:58.514Z,95.70
2022-12-04T22:18:34.579Z,125.80
2022-12-04T22:21:14.298Z,126.20
2022-12-04T22:23:48.930Z,97.90
2022-12-04T22:26:23.577Z,120.50
2022-12-04T22:28:58.280Z,69.10
2022-12-04T22:31:34.801Z,76.40
2022-12-04T22:34:09.478Z,90.20
2022-12-04T22:36:43.887Z,113.50
2022-12-04T22:39:17.988Z,106.10
2022-12-04T22:41:51.882Z,136.20
2022-12-04T22:44:26.359Z,126.50
2022-12-04T22:47:00.112Z,107.10
2022-12-04T22:49:35.952Z,74.00
2022-12-04T22:52:09.741Z,75.20
2022-12-04T22:54:44.073Z,77.90
2022-12-04T22:57:18.347Z,94.70
2022-12-04T22:59:53.656Z,76.30
2022-12-04T23:02:29.702Z,107.00
2022-12-04T23:05:04.313Z,130.00
2022-12-04T23:07:38.250Z,128.60
2022-12-04T23:10:13.105Z,96.70
2022-12-04T23:12:47.324Z,108.10
2022-12-04T23:15:22.277Z,63.70
2022-12-04T23:17:56.277Z,87.80
2022-12-04T23:20:30.438Z,81.80
2022-12-04T23:23:04.448Z,50.20
2022-12-04T23:25:43.405Z,97.80
2022-12-04T23:28:17.834Z,79.20
2022-12-04T23:30:51.853Z,76.20
2022-12-04T23:33:26.020Z,75.30
2022-12-04T23:36:01.531Z,71.90
2022-12-04T23:38:37.393Z,91.70
2022-12-04T23:41:13.684Z,89.40
2022-12-04T23:43:49.012Z,66.40
2022-12-04T23:46:30.250Z,88.30
2022-12-04T23:49:04.820Z,86.20
2022-12-04T23:51:39.097Z,47.00
2022-12-04T23:54:12.775Z,88.50
2022-12-04T23:56:47.412Z,46.60
2022-12-04T23:59:22.518Z,74.90
